Time;durP1;ratioP1;P1;durP2;ratioP2;P2;SDS_P1;SDS_P2;PMS_P1;PMS_P2;Temp;Humidity;BMP_temperature;BMP_pressure;BME280_temperature;BME280_humidity;BME280_pressure;Samples;Min_cycle;Max_cycle;Signal;HPM_P1;HPM_P2
2022/11/07 00:02:13;;;;;;;22.23;9.20;;;;;;;42.75;33.42;101152.81;5093102;28;20478;-68
2022/11/07 00:04:40;;;;;;;17.00;9.40;;;;;;;42.74;33.51;101148.47;5084017;28;20433;-69
2022/11/07 00:07:07;;;;;;;24.37;10.60;;;;;;;42.83;33.32;101141.00;5075496;28;20424;-68
2022/11/07 00:09:33;;;;;;;26.53;9.83;;;;;;;42.81;33.25;101135.09;5075679;28;21043;-68
2022/11/07 00:11:59;;;;;;;33.43;13.70;;;;;;;42.95;33.35;101136.75;5094050;28;20425;-69
2022/11/07 00:14:25;;;;;;;25.97;10.43;;;;;;;42.89;33.92;101131.50;5058789;28;20809;-69
2022/11/07 00:16:51;;;;;;;22.27;10.13;;;;;;;42.46;33.66;101131.81;5094171;28;20914;-69
2022/11/07 00:19:20;;;;;;;20.47;10.90;;;;;;;42.70;33.47;101133.09;5075408;28;20440;-69
2022/11/07 00:21:47;;;;;;;18.60;10.33;;;;;;;42.51;33.71;101119.91;5088726;28;20470;-69
2022/11/07 00:24:16;;;;;;;19.40;8.63;;;;;;;42.23;33.99;101125.06;5083404;28;20809;-68
2022/11/07 00:26:43;;;;;;;31.37;11.07;;;;;;;42.45;33.79;101121.22;5092250;28;20417;-68
2022/11/07 00:29:17;;;;;;;21.77;10.17;;;;;;;42.58;33.38;101122.94;5092219;28;20408;-69
2022/11/07 00:31:43;;;;;;;22.10;9.73;;;;;;;42.55;33.72;101129.03;5092123;28;20416;-69
2022/11/07 00:34:10;;;;;;;26.60;9.63;;;;;;;42.52;33.61;101121.50;5092240;28;20529;-68
2022/11/07 00:36:36;;;;;;;33.33;9.30;;;;;;;42.44;33.67;101120.44;5092006;28;20419;-69
2022/11/07 00:39:03;;;;;;;17.73;10.63;;;;;;;42.35;33.92;101115.03;5092172;28;20447;-69
2022/11/07 00:41:29;;;;;;;30.10;9.50;;;;;;;42.44;33.75;101108.72;5091925;28;20985;-68
2022/11/07 00:43:55;;;;;;;15.40;8.60;;;;;;;42.41;34.02;101118.34;5091956;28;20943;-70
2022/11/07 00:46:21;;;;;;;26.47;10.57;;;;;;;42.30;34.28;101112.53;5091878;28;20486;-70
2022/11/07 00:48:47;;;;;;;22.53;10.07;;;;;;;42.17;34.43;101108.09;5092142;28;20413;-68
2022/11/07 00:51:20;;;;;;;23.93;12.37;;;;;;;42.37;34.19;101096.44;5092181;28;20759;-68
2022/11/07 00:53:46;;;;;;;17.30;10.73;;;;;;;42.49;33.99;101094.91;5075294;28;20496;-68
2022/11/07 00:56:15;;;;;;;19.30;11.00;;;;;;;42.66;33.76;101097.50;5091688;28;20440;-70
2022/11/07 00:58:41;;;;;;;24.57;11.10;;;;;;;42.29;34.19;101093.75;5091723;28;20915;-70
2022/11/07 01:01:11;;;;;;;19.97;11.27;;;;;;;42.42;33.89;101097.34;5093170;28;20472;-68
2022/11/07 01:06:22;;;;;;;17.17;10.40;;;;;;;42.39;33.65;101088.69;5093110;28;20822;-68
2022/11/07 01:08:49;;;;;;;26.67;11.37;;;;;;;42.46;33.44;101081.91;5091677;28;20433;-68
2022/11/07 01:11:15;;;;;;;20.43;13.47;;;;;;;42.51;33.65;101084.44;5091500;28;20954;-67
2022/11/07 01:13:41;;;;;;;20.73;10.27;;;;;;;42.46;33.64;101090.09;5091820;28;20427;-68
2022/11/07 01:16:10;;;;;;;29.13;11.20;;;;;;;42.37;33.53;101082.78;5091376;28;20464;-69
2022/11/07 01:18:36;;;;;;;26.00;10.73;;;;;;;42.27;33.74;101068.75;5091433;28;20825;-68
2022/11/07 01:21:05;;;;;;;14.57;8.87;;;;;;;42.37;33.69;101069.16;5091100;28;20575;-68
2022/11/07 01:23:31;;;;;;;19.40;10.33;;;;;;;42.34;33.53;101072.53;5071156;28;20453;-70
2022/11/07 01:25:57;;;;;;;22.33;10.80;;;;;;;42.45;33.62;101064.75;5071173;28;20429;-71
2022/11/07 01:28:23;;;;;;;24.27;10.73;;;;;;;42.55;33.77;101074.47;5071229;28;20441;-68
2022/11/07 01:30:48;;;;;;;18.60;11.67;;;;;;;42.61;34.01;101065.78;5072570;28;20472;-68
2022/11/07 01:33:14;;;;;;;24.43;12.43;;;;;;;42.44;34.10;101055.00;5071445;28;20417;-68
2022/11/07 01:35:40;;;;;;;22.83;9.63;;;;;;;42.44;34.14;101051.47;5071032;28;20179;-69
2022/11/07 01:38:06;;;;;;;26.47;10.07;;;;;;;42.42;34.21;101053.72;5054455;28;20242;-70
2022/11/07 01:41:19;;;;;;;27.53;12.70;;;;;;;42.18;34.39;101049.75;5054487;28;20420;-68
2022/11/07 01:43:18;;;;;;;27.53;9.60;;;;;;;42.10;34.78;101050.53;5072425;28;20456;-68
2022/11/07 01:45:44;;;;;;;21.03;9.93;;;;;;;42.17;34.22;101052.78;5054355;28;20520;-70
2022/11/07 01:48:10;;;;;;;39.43;14.23;;;;;;;41.98;33.87;101048.53;5072663;28;20405;-69
2022/11/07 01:50:36;;;;;;;25.23;12.40;;;;;;;42.01;34.17;101045.16;5072554;28;20696;-68
2022/11/07 01:53:02;;;;;;;24.03;10.73;;;;;;;42.13;34.01;101041.72;5072352;28;20441;-68
2022/11/07 01:55:34;;;;;;;24.43;13.60;;;;;;;42.12;33.96;101040.94;5070961;28;20410;-68
2022/11/07 01:58:03;;;;;;;20.37;10.23;;;;;;;42.06;33.77;101038.72;5070820;28;20417;-68
2022/11/07 02:00:31;;;;;;;15.13;8.57;;;;;;;42.04;34.18;101036.31;5070824;28;20421;-70
2022/11/07 02:03:08;;;;;;;23.00;9.03;;;;;;;42.08;34.20;101034.53;5087700;28;20425;-69
2022/11/07 02:05:38;;;;;;;23.53;10.63;;;;;;;42.31;34.06;101032.31;5071174;28;20434;-68
2022/11/07 02:08:07;;;;;;;21.80;9.17;;;;;;;42.38;33.66;101035.31;5070871;28;20496;-68
2022/11/07 02:10:34;;;;;;;14.37;9.47;;;;;;;42.35;33.31;101033.22;5070844;28;20425;-68
2022/11/07 02:13:02;;;;;;;16.50;10.17;;;;;;;42.42;33.52;101026.44;5070758;28;20479;-68
2022/11/07 02:15:28;;;;;;;20.47;10.40;;;;;;;42.44;33.86;101024.19;5087491;28;20487;-68
2022/11/07 02:17:55;;;;;;;22.80;10.50;;;;;;;42.17;34.04;101020.84;5070807;28;20418;-68
2022/11/07 02:20:21;;;;;;;27.70;11.13;;;;;;;42.44;33.84;101016.00;5070546;28;20437;-67
2022/11/07 02:23:03;;;;;;;13.23;9.27;;;;;;;42.38;33.90;101021.66;5090644;28;20471;-68
2022/11/07 02:25:29;;;;;;;22.30;9.03;;;;;;;42.42;33.72;101016.34;5073942;28;20412;-68
2022/11/07 02:27:59;;;;;;;18.43;9.13;;;;;;;42.48;33.66;101023.19;5074066;28;20441;-68
2022/11/07 02:30:32;;;;;;;18.70;10.07;;;;;;;42.43;33.37;101014.44;5096170;28;20450;-68
2022/11/07 02:32:58;;;;;;;22.13;11.23;;;;;;;42.27;33.73;101009.56;5094500;28;20417;-68
2022/11/07 02:35:46;;;;;;;27.23;10.77;;;;;;;42.07;34.20;101002.16;5060919;28;20441;-69
2022/11/07 02:38:18;;;;;;;29.67;11.70;;;;;;;42.32;33.44;100997.66;5077737;28;20424;-68
2022/11/07 02:40:50;;;;;;;16.57;10.40;;;;;;;42.45;34.41;100998.53;5077192;28;20444;-68
2022/11/07 02:43:19;;;;;;;24.03;16.40;;;;;;;42.35;34.06;101000.50;5077312;28;20424;-68
2022/11/07 02:45:48;;;;;;;30.73;21.00;;;;;;;41.93;35.28;100999.69;5060981;28;20447;-68
2022/11/07 02:48:14;;;;;;;35.00;20.77;;;;;;;41.91;35.48;101006.59;5060840;28;20421;-68
2022/11/07 02:50:41;;;;;;;29.70;20.00;;;;;;;41.56;35.91;101001.34;5060659;28;21015;-68
2022/11/07 02:53:07;;;;;;;38.27;22.80;;;;;;;41.72;36.10;101001.56;5060500;28;20444;-70
2022/11/07 02:55:33;;;;;;;31.17;22.47;;;;;;;41.80;35.64;101006.19;5077199;28;20421;-70
2022/11/07 02:57:59;;;;;;;28.60;21.13;;;;;;;41.69;35.88;101016.66;5076982;28;20437;-67
2022/11/07 03:00:25;;;;;;;33.03;24.43;;;;;;;41.21;36.73;101008.81;5077495;28;20421;-68
2022/11/07 03:02:51;;;;;;;33.57;22.80;;;;;;;41.49;36.19;101017.38;5060443;28;20436;-68
2022/11/07 03:05:19;;;;;;;28.60;20.70;;;;;;;41.40;36.06;101011.97;5076889;28;20432;-68
2022/11/07 03:07:47;;;;;;;26.43;22.10;;;;;;;41.55;35.99;101011.41;5076960;28;20417;-69
2022/11/07 03:10:14;;;;;;;32.20;23.20;;;;;;;41.59;35.65;101011.56;5095318;28;20450;-68
2022/11/07 03:12:41;;;;;;;27.60;21.00;;;;;;;41.64;35.74;101016.81;5093751;28;20464;-68
2022/11/07 03:15:09;;;;;;;36.77;22.90;;;;;;;41.36;36.43;101012.94;5076768;28;20428;-68
2022/11/07 03:17:35;;;;;;;31.10;22.27;;;;;;;41.23;36.42;101009.28;5076699;28;20806;-68
2022/11/07 03:20:01;;;;;;;29.67;21.57;;;;;;;41.47;36.17;101014.97;5077127;28;20446;-68
2022/11/07 03:22:27;;;;;;;33.37;21.20;;;;;;;41.52;36.00;101016.72;5094359;28;20472;-68
2022/11/07 03:24:53;;;;;;;41.70;22.07;;;;;;;41.11;36.77;101011.88;5071731;28;20436;-69
2022/11/07 03:27:19;;;;;;;34.23;23.83;;;;;;;40.85;37.27;101020.09;5086553;28;20405;-68
2022/11/07 03:29:45;;;;;;;31.30;21.50;;;;;;;41.08;36.67;101021.50;5043330;28;20413;-68
2022/11/07 03:32:11;;;;;;;38.93;22.50;;;;;;;41.33;36.73;101014.41;5060341;28;20412;-68
2022/11/07 03:34:37;;;;;;;34.70;25.60;;;;;;;41.43;36.65;101022.19;5076366;28;20421;-69
2022/11/07 03:37:03;;;;;;;33.73;24.40;;;;;;;41.21;36.51;101036.84;5076336;28;20413;-68
2022/11/07 03:39:29;;;;;;;35.20;22.07;;;;;;;41.08;37.07;101032.38;5094807;28;20390;-68
2022/11/07 03:41:55;;;;;;;32.37;21.90;;;;;;;41.22;36.86;101034.91;5076105;28;20521;-69
2022/11/07 03:44:21;;;;;;;28.30;20.63;;;;;;;40.99;36.74;101032.41;5076265;28;20582;-68
2022/11/07 03:46:47;;;;;;;30.23;21.27;;;;;;;41.09;36.99;101036.72;5076364;28;20416;-68
2022/11/07 03:49:13;;;;;;;27.03;21.17;;;;;;;41.06;36.83;101037.34;5094516;28;20399;-68
2022/11/07 03:51:39;;;;;;;41.43;21.30;;;;;;;41.01;36.56;101046.50;5059519;28;20444;-70
2022/11/07 03:54:06;;;;;;;30.63;18.43;;;;;;;41.03;36.77;101038.78;5094467;28;20393;-70
2022/11/07 03:56:32;;;;;;;24.73;17.97;;;;;;;40.60;37.16;101043.47;5075971;28;20923;-68
2022/11/07 03:58:58;;;;;;;24.27;19.20;;;;;;;41.11;36.77;101050.78;5094327;28;20415;-68
2022/11/07 04:01:23;;;;;;;29.03;18.70;;;;;;;41.02;36.89;101053.53;5075704;28;20462;-68
2022/11/07 04:03:49;;;;;;;31.00;20.20;;;;;;;41.12;36.42;101057.81;5059244;28;20412;-68
2022/11/07 04:06:15;;;;;;;32.77;18.20;;;;;;;40.98;36.89;101055.28;5075934;28;20429;-68
2022/11/07 04:08:41;;;;;;;30.23;18.40;;;;;;;41.00;36.34;101063.13;5075759;28;20691;-68
2022/11/07 04:17:17;;;;;;;35.87;18.30;;;;;;;40.72;37.42;101066.19;5094019;28;20436;-68
2022/11/07 04:19:25;;;;;;;27.93;19.63;;;;;;;40.92;36.93;101072.09;5093883;28;20427;-68
2022/11/07 04:21:51;;;;;;;28.33;17.97;;;;;;;40.88;36.74;101066.47;5093600;28;21027;-68
2022/11/07 04:24:17;;;;;;;26.83;20.43;;;;;;;41.02;36.65;101069.06;5083696;28;20413;-68
2022/11/07 04:29:27;;;;;;;25.90;17.30;;;;;;;40.87;36.97;101077.69;5093560;28;20395;-68
2022/11/07 04:31:53;;;;;;;30.90;16.93;;;;;;;40.81;37.15;101083.28;5075384;28;20436;-68
2022/11/07 04:34:19;;;;;;;28.77;19.83;;;;;;;40.93;37.10;101081.88;5075322;28;20182;-68
2022/11/07 04:36:45;;;;;;;38.93;20.70;;;;;;;41.10;37.04;101081.84;5075395;28;20911;-68
2022/11/07 04:39:11;;;;;;;31.67;19.57;;;;;;;40.85;37.12;101085.38;5075187;28;20179;-68
2022/11/07 04:41:37;;;;;;;34.50;20.07;;;;;;;40.80;36.67;101081.69;5076207;27;20210;-68
2022/11/07 04:44:03;;;;;;;32.50;18.87;;;;;;;40.88;36.93;101084.72;5134373;27;20177;-69
2022/11/07 04:46:29;;;;;;;26.20;17.43;;;;;;;40.89;37.18;101086.34;5115752;27;20483;-68
2022/11/07 04:48:54;;;;;;;27.00;17.30;;;;;;;41.01;36.92;101078.34;5134534;27;20807;-70
2022/11/07 04:51:21;;;;;;;27.53;18.70;;;;;;;41.02;37.00;101088.09;5115698;27;20419;-70
2022/11/07 04:53:47;;;;;;;37.50;24.40;;;;;;;40.91;36.55;101084.91;5115614;27;20225;-68
2022/11/07 04:56:13;;;;;;;45.63;24.07;;;;;;;40.99;36.86;101080.56;5134257;27;20403;-69
2022/11/07 04:58:39;;;;;;;38.20;23.70;;;;;;;40.83;36.80;101088.41;5115741;27;20430;-68
2022/11/07 05:01:05;;;;;;;38.83;21.37;;;;;;;40.55;37.52;101093.38;5115437;27;20451;-69
2022/11/07 05:03:31;;;;;;;32.83;20.73;;;;;;;40.43;37.57;101095.88;5115922;27;20419;-69
2022/11/07 05:05:57;;;;;;;41.07;22.97;;;;;;;40.58;37.87;101098.19;5115495;27;20463;-69
2022/11/07 05:08:23;;;;;;;32.87;19.97;;;;;;;40.50;37.35;101099.75;5115269;27;20407;-70
2022/11/07 05:10:49;;;;;;;50.40;20.47;;;;;;;40.54;37.35;101100.72;5115357;27;20795;-70
2022/11/07 05:13:15;;;;;;;29.80;21.93;;;;;;;40.74;37.23;101101.22;5115364;28;20921;-70
2022/11/07 05:15:41;;;;;;;31.23;20.60;;;;;;;40.21;37.82;101104.97;5115177;28;20403;-68
2022/11/07 05:18:09;;;;;;;34.20;22.13;;;;;;;40.52;37.03;101102.16;5115131;27;20797;-68
2022/11/07 05:20:37;;;;;;;34.00;20.37;;;;;;;40.61;37.06;101108.41;5133691;27;20804;-69
2022/11/07 05:23:17;;;;;;;30.50;20.97;;;;;;;40.65;37.27;101114.00;5098190;28;20490;-68
2022/11/07 05:25:51;;;;;;;37.27;22.50;;;;;;;40.63;37.40;101108.06;5123064;28;20438;-70
2022/11/07 05:28:28;;;;;;;26.47;19.93;;;;;;;40.71;37.12;101115.47;5108552;28;20419;-68
2022/11/07 05:30:59;;;;;;;39.27;23.90;;;;;;;40.69;37.02;101115.75;5115019;28;20414;-68
2022/11/07 05:33:25;;;;;;;38.83;24.60;;;;;;;40.71;37.09;101116.25;5098511;28;20833;-68
2022/11/07 05:35:51;;;;;;;31.80;23.50;;;;;;;41.06;36.34;101124.41;5098321;28;20419;-70
2022/11/07 05:38:16;;;;;;;33.70;26.13;;;;;;;40.90;36.75;101121.41;5094130;28;20417;-70
2022/11/07 05:40:42;;;;;;;38.23;27.53;;;;;;;40.81;36.44;101120.56;5074351;28;20470;-70
2022/11/07 05:43:11;;;;;;;33.30;27.17;;;;;;;40.92;36.18;101126.53;5090535;28;20294;-68
2022/11/07 05:45:38;;;;;;;43.70;27.17;;;;;;;41.01;36.53;101128.13;5074118;28;20207;-66
2022/11/07 05:48:09;;;;;;;43.77;30.47;;;;;;;40.83;36.52;101136.59;5095067;28;20392;-68
2022/11/07 05:50:35;;;;;;;60.77;45.97;;;;;;;40.65;36.66;101142.00;5077902;28;20941;-68
2022/11/07 05:53:03;;;;;;;65.87;51.57;;;;;;;40.70;36.74;101139.13;5094570;28;20411;-68
2022/11/07 05:55:29;;;;;;;64.50;41.37;;;;;;;40.68;36.88;101138.63;5094568;28;20914;-68
2022/11/07 05:57:55;;;;;;;62.13;38.10;;;;;;;40.15;37.54;101144.28;5083207;28;20448;-73
2022/11/07 06:00:22;;;;;;;44.10;31.10;;;;;;;39.98;37.60;101150.41;5082303;28;20412;-72
2022/11/07 06:03:00;;;;;;;44.80;25.20;;;;;;;40.26;37.49;101145.56;5081490;28;20444;-68
2022/11/07 06:05:28;;;;;;;30.70;24.97;;;;;;;40.59;36.46;101151.44;5079332;28;20440;-68
2022/11/07 06:07:54;;;;;;;37.57;24.53;;;;;;;40.86;36.39;101153.06;5087006;28;20420;-69
2022/11/07 06:10:20;;;;;;;38.50;26.73;;;;;;;41.04;36.22;101160.13;5089168;28;20888;-69
2022/11/07 06:12:46;;;;;;;33.80;25.13;;;;;;;41.14;35.63;101169.09;5080849;28;20424;-68
2022/11/07 06:15:13;;;;;;;39.40;29.27;;;;;;;41.02;35.56;101177.91;5105389;28;20427;-68
2022/11/07 06:17:39;;;;;;;39.50;25.63;;;;;;;41.29;35.63;101172.09;5079651;28;20499;-66
2022/11/07 06:20:05;;;;;;;41.20;29.77;;;;;;;41.42;35.15;101178.53;5092533;28;20957;-66
2022/11/07 06:22:31;;;;;;;37.40;27.60;;;;;;;41.42;35.06;101188.63;5094498;28;21004;-67
2022/11/07 06:24:57;;;;;;;36.57;25.97;;;;;;;41.39;35.17;101192.00;5095849;28;20412;-71
2022/11/07 06:27:23;;;;;;;42.50;26.73;;;;;;;41.31;35.30;101191.66;5078965;28;20179;-70
2022/11/07 06:29:49;;;;;;;42.40;27.47;;;;;;;41.27;35.18;101190.69;5074219;28;20429;-67
2022/11/07 06:32:15;;;;;;;40.23;27.37;;;;;;;41.49;34.98;101197.09;5080811;28;20497;-69
2022/11/07 06:34:41;;;;;;;48.13;29.20;;;;;;;41.49;34.80;101197.09;5075879;28;20402;-67
2022/11/07 06:37:07;;;;;;;42.10;30.90;;;;;;;41.54;34.38;101199.66;5080532;28;20421;-67
2022/11/07 06:39:33;;;;;;;53.23;32.63;;;;;;;41.47;35.02;101204.78;5074134;28;20413;-69
2022/11/07 06:41:59;;;;;;;53.03;36.13;;;;;;;41.56;35.16;101209.09;5069174;28;20452;-67
2022/11/07 06:44:24;;;;;;;49.57;38.43;;;;;;;41.33;35.03;101208.50;5074982;28;20460;-69
2022/11/07 06:46:50;;;;;;;61.93;41.20;;;;;;;41.39;35.14;101213.78;5081337;28;20409;-69
2022/11/07 06:49:16;;;;;;;49.83;41.40;;;;;;;41.48;34.87;101218.06;5099787;28;20448;-69
2022/11/07 06:51:42;;;;;;;50.67;37.97;;;;;;;41.63;34.89;101221.44;5081640;28;20603;-73
2022/11/07 06:54:08;;;;;;;53.30;37.13;;;;;;;41.65;34.82;101219.97;5087680;28;20202;-70
2022/11/07 06:56:34;;;;;;;42.70;36.67;;;;;;;41.76;34.69;101225.91;5072914;28;20421;-71
2022/11/07 06:59:00;;;;;;;54.93;34.97;;;;;;;41.67;34.25;101219.66;5080211;28;20410;-72
2022/11/07 07:01:26;;;;;;;59.97;34.97;;;;;;;41.41;34.73;101225.13;5082532;28;20449;-68
2022/11/07 07:03:52;;;;;;;40.73;30.73;;;;;;;41.40;34.82;101227.06;5068398;28;20460;-70
2022/11/07 07:06:18;;;;;;;44.20;30.80;;;;;;;41.15;35.85;101225.13;5080155;28;20437;-68
2022/11/07 07:08:45;;;;;;;62.20;40.67;;;;;;;40.98;35.83;101239.50;5079127;28;20183;-68
2022/11/07 07:11:13;;;;;;;47.37;33.40;;;;;;;41.09;35.77;101238.09;5081708;28;20282;-71
2022/11/07 07:13:39;;;;;;;43.43;29.33;;;;;;;41.11;36.03;101240.47;5072645;28;20433;-71
2022/11/07 07:16:07;;;;;;;50.50;28.80;;;;;;;41.45;35.16;101245.97;5088150;28;20440;-71
2022/11/07 07:18:33;;;;;;;46.13;27.00;;;;;;;41.42;35.06;101243.06;5072440;28;20954;-71
2022/11/07 07:21:17;;;;;;;42.97;28.13;;;;;;;41.25;36.06;101241.94;5073920;28;20474;-71
2022/11/07 07:23:43;;;;;;;40.27;28.07;;;;;;;41.62;35.01;101242.44;5079384;28;20470;-71
2022/11/07 07:26:14;;;;;;;44.00;28.90;;;;;;;41.19;35.66;101243.22;5077043;28;20417;-71
2022/11/07 07:28:41;;;;;;;36.03;26.43;;;;;;;41.41;35.25;101244.19;5075314;28;20405;-71
2022/11/07 07:31:07;;;;;;;43.23;26.30;;;;;;;41.40;35.14;101242.59;5074572;28;20407;-71
2022/11/07 07:33:33;;;;;;;40.20;26.27;;;;;;;41.59;35.21;101240.34;5074554;28;20494;-71
2022/11/07 07:35:59;;;;;;;41.60;25.80;;;;;;;41.87;35.08;101238.06;5074452;28;20417;-71
2022/11/07 07:38:25;;;;;;;39.87;26.80;;;;;;;41.57;35.09;101232.50;5074700;28;20425;-71
2022/11/07 07:40:50;;;;;;;39.20;22.30;;;;;;;41.13;36.13;101243.69;5074243;28;20185;-70
2022/11/07 07:43:16;;;;;;;36.27;23.67;;;;;;;41.19;36.21;101243.22;5074230;28;20920;-71
2022/11/07 07:45:42;;;;;;;31.10;19.57;;;;;;;41.68;35.11;101241.13;5074290;28;20177;-71
2022/11/07 07:48:08;;;;;;;35.70;22.90;;;;;;;41.98;34.88;101241.22;5075948;28;20183;-71
2022/11/07 07:50:34;;;;;;;41.37;25.70;;;;;;;41.75;34.92;101246.91;5102049;28;20217;-69
2022/11/07 07:53:00;;;;;;;53.57;26.70;;;;;;;41.85;35.15;101248.47;5074177;28;20177;-69
2022/11/07 07:55:26;;;;;;;49.43;30.27;;;;;;;41.29;36.01;101248.31;5074070;28;20271;-70
2022/11/07 07:57:52;;;;;;;38.60;25.20;;;;;;;41.37;35.51;101254.91;5074386;28;20275;-70
2022/11/07 08:00:18;;;;;;;45.37;28.40;;;;;;;41.60;35.53;101255.53;5094115;28;20954;-71
2022/11/07 08:02:44;;;;;;;36.90;24.30;;;;;;;41.55;36.05;101250.25;5075811;28;20505;-71
2022/11/07 08:05:12;;;;;;;37.37;24.20;;;;;;;42.05;35.15;101261.41;5094180;28;20516;-69
2022/11/07 08:07:49;;;;;;;31.20;20.67;;;;;;;42.16;34.68;101258.31;5094257;28;20312;-70
2022/11/07 08:10:17;;;;;;;28.43;20.27;;;;;;;42.05;34.97;101264.16;5075761;28;20819;-70
2022/11/07 08:12:44;;;;;;;35.93;23.27;;;;;;;42.29;34.74;101258.13;5075853;28;20470;-71
2022/11/07 08:15:11;;;;;;;37.93;21.90;;;;;;;41.56;35.16;101277.19;5075642;28;20911;-69
2022/11/07 08:17:37;;;;;;;35.23;22.80;;;;;;;41.89;35.57;101270.44;5058893;28;20535;-69
2022/11/07 08:20:04;;;;;;;27.37;19.77;;;;;;;42.06;34.87;101276.63;5075479;28;20550;-69
2022/11/07 08:22:30;;;;;;;32.10;16.63;;;;;;;41.48;35.38;101277.19;5075218;28;20483;-69
2022/11/07 08:24:56;;;;;;;25.03;16.60;;;;;;;42.23;33.98;101278.53;5110188;28;20404;-69
2022/11/07 08:27:22;;;;;;;30.20;19.97;;;;;;;42.38;34.41;101277.19;5094961;28;20189;-69
2022/11/07 08:29:48;;;;;;;22.43;13.80;;;;;;;41.70;34.80;101281.66;5095453;28;20423;-68
2022/11/07 08:32:14;;;;;;;19.03;14.50;;;;;;;42.14;34.33;101275.00;5095637;28;20407;-69
2022/11/07 08:34:40;;;;;;;25.93;16.40;;;;;;;42.46;33.77;101273.63;5095452;28;20529;-70
2022/11/07 08:37:06;;;;;;;27.33;16.50;;;;;;;42.10;34.20;101284.94;5095403;28;20454;-70
2022/11/07 08:39:32;;;;;;;17.37;12.27;;;;;;;42.17;33.87;101273.56;5114060;28;20407;-70
2022/11/07 08:41:58;;;;;;;28.03;13.67;;;;;;;42.29;33.66;101274.47;5095354;28;20451;-68
2022/11/07 08:44:24;;;;;;;22.63;13.37;;;;;;;42.61;33.11;101275.84;5113932;28;20403;-69
2022/11/07 08:46:49;;;;;;;26.27;12.00;;;;;;;42.81;32.31;101274.25;5095355;28;20189;-69
2022/11/07 08:49:15;;;;;;;28.33;15.00;;;;;;;42.69;33.14;101274.16;5095588;28;20976;-69
2022/11/07 08:51:41;;;;;;;28.60;14.50;;;;;;;42.01;34.33;101276.00;5095296;28;20208;-69
2022/11/07 08:54:07;;;;;;;29.07;14.80;;;;;;;42.11;34.23;101272.91;5095818;28;20461;-69
2022/11/07 08:56:34;;;;;;;22.07;14.83;;;;;;;42.36;33.98;101276.72;5078254;28;20716;-69
2022/11/07 08:59:00;;;;;;;23.50;16.03;;;;;;;42.33;34.18;101272.72;5095134;28;20431;-69
2022/11/07 09:01:26;;;;;;;29.00;17.30;;;;;;;42.24;33.84;101271.97;5094929;28;20474;-69
2022/11/07 09:03:52;;;;;;;25.60;16.30;;;;;;;42.67;33.27;101267.47;5095013;28;20925;-68
2022/11/07 09:06:18;;;;;;;29.77;17.70;;;;;;;42.76;33.19;101263.53;5078223;28;20423;-69
2022/11/07 09:08:44;;;;;;;32.60;16.23;;;;;;;42.92;33.23;101259.09;5078146;28;20232;-69
2022/11/07 09:11:10;;;;;;;22.17;14.40;;;;;;;43.04;32.90;101263.06;5113496;28;20416;-68
2022/11/07 09:13:36;;;;;;;25.60;14.47;;;;;;;43.09;32.71;101257.38;5094860;28;20416;-70
2022/11/07 09:16:04;;;;;;;29.27;15.50;;;;;;;43.08;32.59;101253.06;5094808;28;20510;-71
2022/11/07 09:18:31;;;;;;;33.40;18.43;;;;;;;43.13;32.67;101250.13;5094921;28;20428;-69
2022/11/07 09:20:57;;;;;;;42.27;17.13;;;;;;;43.13;32.54;101247.41;5094480;28;20418;-69
2022/11/07 09:23:24;;;;;;;27.20;14.70;;;;;;;43.27;32.52;101249.84;5112327;28;20403;-68
2022/11/07 09:25:50;;;;;;;24.37;14.70;;;;;;;43.30;32.69;101249.19;5095036;28;20415;-68
2022/11/07 09:28:16;;;;;;;36.43;18.27;;;;;;;43.31;32.29;101246.13;5094725;28;20492;-68
2022/11/07 09:30:42;;;;;;;41.50;24.07;;;;;;;43.35;32.79;101249.78;5112943;28;20539;-68
2022/11/07 09:33:08;;;;;;;25.10;17.47;;;;;;;43.39;32.35;101236.28;5092990;28;20416;-69
2022/11/07 09:35:34;;;;;;;24.17;15.97;;;;;;;43.41;32.20;101244.97;5083792;28;20795;-69
2022/11/07 09:38:00;;;;;;;26.90;14.70;;;;;;;43.43;32.59;101246.22;5096649;28;20411;-69
2022/11/07 09:40:39;;;;;;;44.10;25.50;;;;;;;43.37;32.81;101247.53;5098880;28;20201;-69
2022/11/07 09:43:41;;;;;;;33.20;19.07;;;;;;;43.35;32.39;101244.34;5098700;28;20474;-69
2022/11/07 09:46:31;;;;;;;40.00;19.87;;;;;;;43.34;32.78;101240.00;5098672;28;20429;-71
2022/11/07 09:49:00;;;;;;;26.27;15.57;;;;;;;43.40;32.75;101238.69;5098825;28;20428;-71
2022/11/07 09:51:42;;;;;;;25.30;17.40;;;;;;;43.26;32.83;101232.69;5098548;28;20412;-71
2022/11/07 09:54:19;;;;;;;30.77;16.07;;;;;;;43.32;33.21;101234.06;5098675;28;20430;-72
2022/11/07 09:56:45;;;;;;;35.07;18.70;;;;;;;43.42;32.85;101225.50;5098551;28;20408;-70
2022/11/07 09:59:23;;;;;;;27.13;17.60;;;;;;;43.30;32.64;101230.88;5117151;28;20388;-70
2022/11/07 10:01:49;;;;;;;29.53;14.33;;;;;;;43.21;33.11;101227.41;5098458;28;20451;-71
2022/11/07 10:04:19;;;;;;;27.03;14.87;;;;;;;43.37;32.63;101225.66;5098444;28;20493;-71
2022/11/07 10:07:08;;;;;;;27.93;14.03;;;;;;;43.45;32.59;101218.56;5098332;28;20835;-71
2022/11/07 10:09:58;;;;;;;31.10;14.80;;;;;;;43.58;32.34;101216.66;5098282;28;20877;-70
2022/11/07 10:12:41;;;;;;;23.73;11.73;;;;;;;43.26;32.58;101218.22;5098334;28;20462;-72
2022/11/07 10:15:43;;;;;;;24.00;12.20;;;;;;;43.40;32.33;101211.38;5098237;28;20432;-72
2022/11/07 10:18:28;;;;;;;29.17;15.63;;;;;;;43.52;32.39;101209.81;5098092;28;20475;-75
2022/11/07 10:21:18;;;;;;;24.37;16.30;;;;;;;43.42;32.49;101205.59;5098043;28;20444;-74
2022/11/07 10:23:52;;;;;;;33.17;18.50;;;;;;;43.71;32.34;101201.91;5094546;28;20401;-75
2022/11/07 10:26:24;;;;;;;37.73;20.10;;;;;;;43.91;32.59;101203.78;5096302;28;20743;-74
2022/11/07 10:28:58;;;;;;;22.80;14.23;;;;;;;43.85;32.57;101210.59;5077892;28;20566;-75
2022/11/07 10:31:39;;;;;;;38.67;15.07;;;;;;;43.82;32.36;101202.28;5077766;28;20481;-80
2022/11/07 10:34:19;;;;;;;38.50;18.03;;;;;;;43.97;32.44;101199.69;5084090;28;20436;-73
2022/11/07 10:36:45;;;;;;;41.93;19.10;;;;;;;44.11;32.21;101206.75;5083693;28;20515;-74
2022/11/07 10:39:15;;;;;;;34.10;19.13;;;;;;;43.98;32.27;101206.75;5077418;28;20473;-73
2022/11/07 10:41:46;;;;;;;27.37;15.83;;;;;;;43.87;32.26;101207.53;5060928;28;20495;-72
2022/11/07 10:44:41;;;;;;;25.23;13.87;;;;;;;43.98;32.06;101200.47;5077318;28;20409;-72
2022/11/07 10:47:22;;;;;;;32.53;16.27;;;;;;;43.96;32.44;101200.81;5093739;28;20424;-74
2022/11/07 10:49:55;;;;;;;31.63;16.47;;;;;;;44.16;31.95;101198.31;5094966;28;20465;-73
2022/11/07 10:52:22;;;;;;;32.50;18.67;;;;;;;44.15;31.79;101194.00;5077104;28;20923;-73
2022/11/07 10:54:48;;;;;;;20.63;14.63;;;;;;;44.28;31.56;101195.63;5077119;28;20413;-74
2022/11/07 10:57:22;;;;;;;32.10;16.60;;;;;;;44.20;31.39;101191.88;5077270;28;20420;-74
2022/11/07 10:59:51;;;;;;;20.73;13.80;;;;;;;44.22;31.46;101186.03;5095542;28;20488;-73
2022/11/07 11:02:23;;;;;;;22.73;13.93;;;;;;;44.06;31.44;101182.38;5076992;28;20810;-74
2022/11/07 11:04:53;;;;;;;29.27;14.53;;;;;;;44.19;31.33;101178.50;5094272;28;20401;-74
2022/11/07 11:07:19;;;;;;;31.47;17.70;;;;;;;43.98;31.12;101165.75;5076927;28;20427;-74
2022/11/07 11:09:56;;;;;;;31.13;14.37;;;;;;;44.06;31.17;101169.50;5076922;28;20500;-73
2022/11/07 11:12:31;;;;;;;31.57;15.43;;;;;;;43.87;31.55;101170.06;5077142;28;20432;-73
2022/11/07 11:15:11;;;;;;;29.10;16.23;;;;;;;43.91;31.45;101162.78;5095079;28;20432;-72
2022/11/07 11:17:38;;;;;;;33.23;13.93;;;;;;;44.01;31.91;101152.50;5076829;28;20405;-73
2022/11/07 11:20:05;;;;;;;26.47;14.40;;;;;;;43.99;31.70;101161.06;5095140;28;20405;-72
2022/11/07 11:22:41;;;;;;;29.00;16.23;;;;;;;43.97;31.40;101150.47;5073279;28;20470;-72
2022/11/07 11:25:10;;;;;;;17.93;11.33;;;;;;;44.11;31.33;101144.66;5088018;28;20424;-72
2022/11/07 11:27:37;;;;;;;23.40;11.43;;;;;;;44.29;31.19;101141.72;5073453;28;20810;-72